sensor_id;sensor_type;location;lat;lon;timestamp;pressure;altitude;pressure_sealevel;temperature;humidity
9091;BME280;4581;42.416;25.598;2023-04-28T00:00:02;66968.22;;;0.00;nan
9091;BME280;4581;42.416;25.598;2023-04-28T00:02:33;66960.59;;;0.00;nan
9091;BME280;4581;42.416;25.598;2023-04-28T00:05:00;66962.13;;;0.00;nan
9091;BME280;4581;42.416;25.598;2023-04-28T00:07:27;66960.59;;;0.00;nan
9091;BME280;4581;42.416;25.598;2023-04-28T00:09:53;66965.16;;;0.00;nan
9091;BME280;4581;42.416;25.598;2023-04-28T00:12:22;66962.13;;;0.00;nan
9091;BME280;4581;42.416;25.598;2023-04-28T00:14:49;66959.06;;;0.00;nan
9091;BME280;4581;42.416;25.598;2023-04-28T00:17:15;66956.00;;;0.00;nan
9091;BME280;4581;42.416;25.598;2023-04-28T00:19:42;66956.00;;;0.00;nan
9091;BME280;4581;42.416;25.598;2023-04-28T00:22:10;66956.00;;;0.00;nan
9091;BME280;4581;42.416;25.598;2023-04-28T00:24:37;66963.66;;;0.00;nan
9091;BME280;4581;42.416;25.598;2023-04-28T00:27:03;66965.16;;;0.00;nan
9091;BME280;4581;42.416;25.598;2023-04-28T00:29:30;66962.13;;;0.00;nan
9091;BME280;4581;42.416;25.598;2023-04-28T00:31:57;66954.50;;;0.00;nan
9091;BME280;4581;42.416;25.598;2023-04-28T00:34:23;67003.31;;;0.00;nan
9091;BME280;4581;42.416;25.598;2023-04-28T00:36:50;66988.06;;;0.00;nan
9091;BME280;4581;42.416;25.598;2023-04-28T00:39:17;66997.22;;;0.00;nan
9091;BME280;4581;42.416;25.598;2023-04-28T00:41:44;66994.16;;;0.00;nan
9091;BME280;4581;42.416;25.598;2023-04-28T00:44:10;66998.75;;;0.00;nan
9091;BME280;4581;42.416;25.598;2023-04-28T00:46:37;67014.00;;;0.00;nan
9091;BME280;4581;42.416;25.598;2023-04-28T00:49:04;67021.63;;;0.00;nan
9091;BME280;4581;42.416;25.598;2023-04-28T00:51:31;67038.41;;;0.00;nan
9091;BME280;4581;42.416;25.598;2023-04-28T00:53:59;67049.09;;;0.00;nan
9091;BME280;4581;42.416;25.598;2023-04-28T00:56:27;67053.69;;;0.00;nan
9091;BME280;4581;42.416;25.598;2023-04-28T00:58:56;67055.19;;;0.00;nan
9091;BME280;4581;42.416;25.598;2023-04-28T01:01:23;67059.78;;;0.00;nan
9091;BME280;4581;42.416;25.598;2023-04-28T01:03:50;67056.72;;;0.00;nan
9091;BME280;4581;42.416;25.598;2023-04-28T01:06:18;67053.69;;;0.00;nan
9091;BME280;4581;42.416;25.598;2023-04-28T01:08:47;67050.63;;;0.00;nan
9091;BME280;4581;42.416;25.598;2023-04-28T01:11:15;67058.25;;;0.00;nan
9091;BME280;4581;42.416;25.598;2023-04-28T01:13:42;67058.25;;;0.00;nan
9091;BME280;4581;42.416;25.598;2023-04-28T01:16:09;67065.88;;;0.00;nan
9091;BME280;4581;42.416;25.598;2023-04-28T01:18:37;67068.94;;;0.00;nan
9091;BME280;4581;42.416;25.598;2023-04-28T01:21:04;67071.97;;;0.00;nan
9091;BME280;4581;42.416;25.598;2023-04-28T01:23:31;67078.09;;;0.00;nan
9091;BME280;4581;42.416;25.598;2023-04-28T01:25:58;67087.25;;;0.00;nan
9091;BME280;4581;42.416;25.598;2023-04-28T01:28:24;67078.09;;;0.00;nan
9091;BME280;4581;42.416;25.598;2023-04-28T01:30:51;67081.13;;;0.00;nan
9091;BME280;4581;42.416;25.598;2023-04-28T01:33:18;67076.56;;;0.00;nan
9091;BME280;4581;42.416;25.598;2023-04-28T01:35:44;67087.25;;;0.00;nan
9091;BME280;4581;42.416;25.598;2023-04-28T01:38:11;67079.63;;;0.00;nan
9091;BME280;4581;42.416;25.598;2023-04-28T01:40:38;67078.09;;;0.00;nan
9091;BME280;4581;42.416;25.598;2023-04-28T01:43:04;67073.50;;;0.00;nan
9091;BME280;4581;42.416;25.598;2023-04-28T01:45:32;67078.09;;;0.00;nan
9091;BME280;4581;42.416;25.598;2023-04-28T01:47:59;67076.56;;;0.00;nan
9091;BME280;4581;42.416;25.598;2023-04-28T01:50:26;67067.41;;;0.00;nan
9091;BME280;4581;42.416;25.598;2023-04-28T01:52:52;67061.31;;;0.00;nan
9091;BME280;4581;42.416;25.598;2023-04-28T01:55:19;67070.47;;;0.00;nan
9091;BME280;4581;42.416;25.598;2023-04-28T01:57:46;67061.31;;;0.00;nan
9091;BME280;4581;42.416;25.598;2023-04-28T02:00:13;67065.88;;;0.00;nan
9091;BME280;4581;42.416;25.598;2023-04-28T02:02:40;67067.41;;;0.00;nan
9091;BME280;4581;42.416;25.598;2023-04-28T02:05:07;67065.88;;;0.00;nan
9091;BME280;4581;42.416;25.598;2023-04-28T02:07:34;67065.88;;;0.00;nan
9091;BME280;4581;42.416;25.598;2023-04-28T02:10:00;67065.88;;;0.00;nan
9091;BME280;4581;42.416;25.598;2023-04-28T02:12:27;67070.47;;;0.00;nan
9091;BME280;4581;42.416;25.598;2023-04-28T02:14:54;67078.09;;;0.00;nan
9091;BME280;4581;42.416;25.598;2023-04-28T02:17:20;67085.72;;;0.00;nan
9091;BME280;4581;42.416;25.598;2023-04-28T02:19:47;67094.88;;;0.00;nan
9091;BME280;4581;42.416;25.598;2023-04-28T02:22:19;67102.50;;;0.00;nan
9091;BME280;4581;42.416;25.598;2023-04-28T02:24:46;67110.13;;;0.00;nan
9091;BME280;4581;42.416;25.598;2023-04-28T02:27:13;67114.72;;;0.00;nan
9091;BME280;4581;42.416;25.598;2023-04-28T02:29:40;67116.22;;;0.00;nan
9091;BME280;4581;42.416;25.598;2023-04-28T02:32:07;67120.81;;;0.00;nan
9091;BME280;4581;42.416;25.598;2023-04-28T02:34:34;67123.88;;;0.00;nan
9091;BME280;4581;42.416;25.598;2023-04-28T02:37:00;67125.38;;;0.00;nan
9091;BME280;4581;42.416;25.598;2023-04-28T02:39:27;67123.88;;;0.00;nan
9091;BME280;4581;42.416;25.598;2023-04-28T02:41:55;67119.28;;;0.00;nan
9091;BME280;4581;42.416;25.598;2023-04-28T02:44:23;67116.22;;;0.00;nan
9091;BME280;4581;42.416;25.598;2023-04-28T02:46:49;67117.75;;;0.00;nan
9091;BME280;4581;42.416;25.598;2023-04-28T02:49:16;67125.38;;;0.00;nan
9091;BME280;4581;42.416;25.598;2023-04-28T02:51:43;67129.97;;;0.00;nan
9091;BME280;4581;42.416;25.598;2023-04-28T02:54:10;67145.22;;;0.00;nan
9091;BME280;4581;42.416;25.598;2023-04-28T02:56:36;67154.38;;;0.00;nan
9091;BME280;4581;42.416;25.598;2023-04-28T02:59:03;67165.06;;;0.00;nan
9091;BME280;4581;42.416;25.598;2023-04-28T03:01:30;67178.78;;;0.00;nan
9091;BME280;4581;42.416;25.598;2023-04-28T03:03:56;67186.44;;;0.00;nan
9091;BME280;4581;42.416;25.598;2023-04-28T03:06:23;67187.94;;;0.00;nan
9091;BME280;4581;42.416;25.598;2023-04-28T03:08:50;67184.91;;;0.00;nan
9091;BME280;4581;42.416;25.598;2023-04-28T03:11:17;67198.63;;;0.00;nan
9091;BME280;4581;42.416;25.598;2023-04-28T03:13:43;67215.41;;;0.00;nan
9091;BME280;4581;42.416;25.598;2023-04-28T03:16:10;67221.53;;;0.00;nan
9091;BME280;4581;42.416;25.598;2023-04-28T03:18:37;67215.41;;;0.00;nan
9091;BME280;4581;42.416;25.598;2023-04-28T03:21:03;67227.63;;;0.00;nan
9091;BME280;4581;42.416;25.598;2023-04-28T03:23:30;67230.69;;;0.00;nan
9091;BME280;4581;42.416;25.598;2023-04-28T03:25:57;67238.31;;;0.00;nan
9091;BME280;4581;42.416;25.598;2023-04-28T03:28:23;67252.03;;;0.00;nan
9091;BME280;4581;42.416;25.598;2023-04-28T03:30:50;67253.56;;;0.00;nan
9091;BME280;4581;42.416;25.598;2023-04-28T03:33:17;67271.88;;;0.00;nan
9091;BME280;4581;42.416;25.598;2023-04-28T03:35:43;67267.28;;;0.00;nan
9091;BME280;4581;42.416;25.598;2023-04-28T03:38:10;67267.28;;;0.00;nan
9091;BME280;4581;42.416;25.598;2023-04-28T03:40:37;67259.66;;;0.00;nan
9091;BME280;4581;42.416;25.598;2023-04-28T03:43:03;67267.28;;;0.00;nan
9091;BME280;4581;42.416;25.598;2023-04-28T03:45:30;67264.25;;;0.00;nan
9091;BME280;4581;42.416;25.598;2023-04-28T03:47:57;67262.72;;;0.00;nan
9091;BME280;4581;42.416;25.598;2023-04-28T03:50:24;67271.88;;;0.00;nan
9091;BME280;4581;42.416;25.598;2023-04-28T03:52:52;67273.41;;;0.00;nan
9091;BME280;4581;42.416;25.598;2023-04-28T03:55:19;67276.44;;;0.00;nan
9091;BME280;4581;42.416;25.598;2023-04-28T03:57:45;67281.03;;;0.00;nan
9091;BME280;4581;42.416;25.598;2023-04-28T04:00:12;67277.97;;;0.00;nan
9091;BME280;4581;42.416;25.598;2023-04-28T04:02:39;67282.56;;;0.00;nan
9091;BME280;4581;42.416;25.598;2023-04-28T04:05:06;67273.41;;;0.00;nan
9091;BME280;4581;42.416;25.598;2023-04-28T04:07:33;67285.59;;;0.00;nan
9091;BME280;4581;42.416;25.598;2023-04-28T04:10:00;67281.03;;;0.00;nan
9091;BME280;4581;42.416;25.598;2023-04-28T04:12:29;67282.56;;;0.00;nan
9091;BME280;4581;42.416;25.598;2023-04-28T04:14:56;67279.50;;;0.00;nan
9091;BME280;4581;42.416;25.598;2023-04-28T04:17:23;67277.97;;;0.00;nan
9091;BME280;4581;42.416;25.598;2023-04-28T04:19:49;67276.44;;;0.00;nan
9091;BME280;4581;42.416;25.598;2023-04-28T04:22:16;67262.72;;;0.00;nan
9091;BME280;4581;42.416;25.598;2023-04-28T04:24:43;67256.63;;;0.00;nan
9091;BME280;4581;42.416;25.598;2023-04-28T04:27:09;67255.09;;;0.00;nan
9091;BME280;4581;42.416;25.598;2023-04-28T04:29:36;67236.78;;;0.00;nan
9091;BME280;4581;42.416;25.598;2023-04-28T04:32:03;67239.84;;;0.00;nan
9091;BME280;4581;42.416;25.598;2023-04-28T04:34:30;67239.84;;;0.00;nan
9091;BME280;4581;42.416;25.598;2023-04-28T04:36:56;67232.19;;;0.00;nan
9091;BME280;4581;42.416;25.598;2023-04-28T04:39:23;67250.50;;;0.00;nan
9091;BME280;4581;42.416;25.598;2023-04-28T04:41:50;67244.41;;;0.00;nan
9091;BME280;4581;42.416;25.598;2023-04-28T04:44:16;67236.78;;;0.00;nan
9091;BME280;4581;42.416;25.598;2023-04-28T04:46:44;67239.84;;;0.00;nan
9091;BME280;4581;42.416;25.598;2023-04-28T04:49:11;67224.56;;;0.00;nan
9091;BME280;4581;42.416;25.598;2023-04-28T04:51:38;67233.72;;;0.00;nan
9091;BME280;4581;42.416;25.598;2023-04-28T04:54:04;67239.84;;;0.00;nan
9091;BME280;4581;42.416;25.598;2023-04-28T04:56:31;67215.41;;;0.00;nan
9091;BME280;4581;42.416;25.598;2023-04-28T04:58:58;67207.78;;;0.00;nan
9091;BME280;4581;42.416;25.598;2023-04-28T05:01:25;67203.22;;;0.00;nan
9091;BME280;4581;42.416;25.598;2023-04-28T05:03:52;67220.00;;;0.00;nan
9091;BME280;4581;42.416;25.598;2023-04-28T05:06:18;67218.47;;;0.00;nan
9091;BME280;4581;42.416;25.598;2023-04-28T05:08:46;67230.69;;;0.00;nan
9091;BME280;4581;42.416;25.598;2023-04-28T05:11:12;67213.88;;;0.00;nan
9091;BME280;4581;42.416;25.598;2023-04-28T05:13:39;67209.31;;;0.00;nan
9091;BME280;4581;42.416;25.598;2023-04-28T05:16:06;67215.41;;;0.00;nan
9091;BME280;4581;42.416;25.598;2023-04-28T05:18:33;67224.56;;;0.00;nan
9091;BME280;4581;42.416;25.598;2023-04-28T05:20:59;67233.72;;;0.00;nan
9091;BME280;4581;42.416;25.598;2023-04-28T05:23:27;67238.31;;;0.00;nan
9091;BME280;4581;42.416;25.598;2023-04-28T05:25:53;67209.31;;;0.00;nan
9091;BME280;4581;42.416;25.598;2023-04-28T05:28:20;67204.75;;;0.00;nan
9091;BME280;4581;42.416;25.598;2023-04-28T05:30:47;67195.59;;;0.00;nan
9091;BME280;4581;42.416;25.598;2023-04-28T05:33:14;67160.47;;;0.00;nan
9091;BME280;4581;42.416;25.598;2023-04-28T05:35:41;67162.00;;;0.00;nan
9091;BME280;4581;42.416;25.598;2023-04-28T05:38:08;67133.03;;;0.00;nan
9091;BME280;4581;42.416;25.598;2023-04-28T05:40:34;67122.34;;;0.00;nan
9091;BME280;4581;42.416;25.598;2023-04-28T05:43:01;67140.66;;;0.00;nan
9091;BME280;4581;42.416;25.598;2023-04-28T05:45:28;67178.78;;;0.00;nan
9091;BME280;4581;42.416;25.598;2023-04-28T05:47:55;67175.75;;;0.00;nan
9091;BME280;4581;42.416;25.598;2023-04-28T05:50:22;67178.78;;;0.00;nan
9091;BME280;4581;42.416;25.598;2023-04-28T05:52:48;67160.47;;;0.00;nan
9091;BME280;4581;42.416;25.598;2023-04-28T05:55:15;67149.81;;;0.00;nan
9091;BME280;4581;42.416;25.598;2023-04-28T05:57:42;67105.56;;;0.00;nan
9091;BME280;4581;42.416;25.598;2023-04-28T06:00:18;67096.41;;;0.00;nan
9091;BME280;4581;42.416;25.598;2023-04-28T06:02:45;67062.81;;;0.00;nan
9091;BME280;4581;42.416;25.598;2023-04-28T06:05:11;67033.84;;;0.00;nan
9091;BME280;4581;42.416;25.598;2023-04-28T06:07:38;66965.16;;;0.00;nan
9091;BME280;4581;42.416;25.598;2023-04-28T06:10:05;66972.81;;;0.00;nan
9091;BME280;4581;42.416;25.598;2023-04-28T06:12:32;66983.47;;;0.00;nan
9091;BME280;4581;42.416;25.598;2023-04-28T06:14:59;67020.09;;;0.00;nan
9091;BME280;4581;42.416;25.598;2023-04-28T06:17:26;66995.69;;;0.00;nan
9091;BME280;4581;42.416;25.598;2023-04-28T06:19:53;66969.75;;;0.00;nan
9091;BME280;4581;42.416;25.598;2023-04-28T06:22:20;66956.00;;;0.00;nan
9091;BME280;4581;42.416;25.598;2023-04-28T06:24:48;66949.91;;;0.00;nan
9091;BME280;4581;42.416;25.598;2023-04-28T06:27:14;66949.91;;;0.00;nan
9091;BME280;4581;42.416;25.598;2023-04-28T06:29:41;66898.03;;;0.00;nan
9091;BME280;4581;42.416;25.598;2023-04-28T06:32:07;66905.66;;;0.00;nan
9091;BME280;4581;42.416;25.598;2023-04-28T06:34:34;66920.91;;;0.00;nan
9091;BME280;4581;42.416;25.598;2023-04-28T06:37:01;66905.66;;;0.00;nan
9091;BME280;4581;42.416;25.598;2023-04-28T06:39:28;66914.81;;;0.00;nan
9091;BME280;4581;42.416;25.598;2023-04-28T06:41:55;66908.72;;;0.00;nan
9091;BME280;4581;42.416;25.598;2023-04-28T06:44:21;66907.19;;;0.00;nan
9091;BME280;4581;42.416;25.598;2023-04-28T06:46:48;66876.66;;;0.00;nan
9091;BME280;4581;42.416;25.598;2023-04-28T06:49:15;66907.19;;;0.00;nan
9091;BME280;4581;42.416;25.598;2023-04-28T06:51:41;66841.56;;;0.00;nan
9091;BME280;4581;42.416;25.598;2023-04-28T06:54:08;66806.47;;;0.00;nan
9091;BME280;4581;42.416;25.598;2023-04-28T06:56:35;66762.22;;;0.00;nan
9091;BME280;4581;42.416;25.598;2023-04-28T06:59:02;66759.19;;;0.00;nan
9091;BME280;4581;42.416;25.598;2023-04-28T07:01:29;66766.81;;;0.00;nan
9091;BME280;4581;42.416;25.598;2023-04-28T07:03:55;66739.34;;;0.00;nan
9091;BME280;4581;42.416;25.598;2023-04-28T07:06:22;66710.34;;;0.00;nan
9091;BME280;4581;42.416;25.598;2023-04-28T07:08:49;66687.47;;;0.00;nan
9091;BME280;4581;42.416;25.598;2023-04-28T07:11:16;66638.63;;;0.00;nan
9091;BME280;4581;42.416;25.598;2023-04-28T07:13:42;66609.63;;;0.00;nan
9091;BME280;4581;42.416;25.598;2023-04-28T07:16:11;66644.72;;;0.00;nan
9091;BME280;4581;42.416;25.598;2023-04-28T07:18:38;66687.47;;;0.00;nan
9091;BME280;4581;42.416;25.598;2023-04-28T07:21:05;66721.03;;;0.00;nan
9091;BME280;4581;42.416;25.598;2023-04-28T07:23:32;66730.19;;;0.00;nan
9091;BME280;4581;42.416;25.598;2023-04-28T07:25:59;66745.44;;;0.00;nan
9091;BME280;4581;42.416;25.598;2023-04-28T07:28:25;66740.88;;;0.00;nan
9091;BME280;4581;42.416;25.598;2023-04-28T07:30:52;66769.84;;;0.00;nan
9091;BME280;4581;42.416;25.598;2023-04-28T07:33:19;66750.03;;;0.00;nan
9091;BME280;4581;42.416;25.598;2023-04-28T07:35:46;66754.59;;;0.00;nan
9091;BME280;4581;42.416;25.598;2023-04-28T07:38:13;66820.22;;;0.00;nan
9091;BME280;4581;42.416;25.598;2023-04-28T07:40:41;66817.16;;;0.00;nan
9091;BME280;4581;42.416;25.598;2023-04-28T07:43:09;66803.44;;;0.00;nan
9091;BME280;4581;42.416;25.598;2023-04-28T07:45:38;66791.22;;;0.00;nan
9091;BME280;4581;42.416;25.598;2023-04-28T07:48:05;66745.44;;;0.00;nan
9091;BME280;4581;42.416;25.598;2023-04-28T07:50:33;66708.81;;;0.00;nan
9091;BME280;4581;42.416;25.598;2023-04-28T07:53:00;66638.63;;;0.00;nan
9091;BME280;4581;42.416;25.598;2023-04-28T07:55:26;66624.91;;;0.00;nan
9091;BME280;4581;42.416;25.598;2023-04-28T07:57:53;66643.22;;;0.00;nan
9091;BME280;4581;42.416;25.598;2023-04-28T08:00:20;66685.94;;;0.00;nan
9091;BME280;4581;42.416;25.598;2023-04-28T08:02:47;66684.41;;;0.00;nan
9091;BME280;4581;42.416;25.598;2023-04-28T08:05:15;66687.47;;;0.00;nan
9091;BME280;4581;42.416;25.598;2023-04-28T08:07:42;66678.31;;;0.00;nan
9091;BME280;4581;42.416;25.598;2023-04-28T08:10:10;66685.94;;;0.00;nan
9091;BME280;4581;42.416;25.598;2023-04-28T08:12:37;66689.00;;;0.00;nan
9091;BME280;4581;42.416;25.598;2023-04-28T08:15:04;66684.41;;;0.00;nan
9091;BME280;4581;42.416;25.598;2023-04-28T08:17:31;66733.25;;;0.00;nan
9091;BME280;4581;42.416;25.598;2023-04-28T08:19:58;66756.13;;;0.00;nan
9091;BME280;4581;42.416;25.598;2023-04-28T08:22:25;66757.66;;;0.00;nan
9091;BME280;4581;42.416;25.598;2023-04-28T08:24:52;66754.59;;;0.00;nan
9091;BME280;4581;42.416;25.598;2023-04-28T08:27:19;66791.22;;;0.00;nan
9091;BME280;4581;42.416;25.598;2023-04-28T08:29:45;66803.44;;;0.00;nan
9091;BME280;4581;42.416;25.598;2023-04-28T08:32:12;66794.28;;;0.00;nan
9091;BME280;4581;42.416;25.598;2023-04-28T08:34:39;66794.28;;;0.00;nan
9091;BME280;4581;42.416;25.598;2023-04-28T08:37:06;66806.47;;;0.00;nan
9091;BME280;4581;42.416;25.598;2023-04-28T08:39:33;66853.78;;;0.00;nan
9091;BME280;4581;42.416;25.598;2023-04-28T08:42:04;66861.41;;;0.00;nan
9091;BME280;4581;42.416;25.598;2023-04-28T08:44:38;66873.63;;;0.00;nan
9091;BME280;4581;42.416;25.598;2023-04-28T08:47:11;66878.19;;;0.00;nan
9091;BME280;4581;42.416;25.598;2023-04-28T08:49:40;66876.66;;;0.00;nan
9091;BME280;4581;42.416;25.598;2023-04-28T08:52:11;66896.50;;;0.00;nan
9091;BME280;4581;42.416;25.598;2023-04-28T08:54:39;66894.97;;;0.00;nan
9091;BME280;4581;42.416;25.598;2023-04-28T08:57:08;66894.97;;;0.00;nan
9091;BME280;4581;42.416;25.598;2023-04-28T08:59:39;66899.56;;;0.00;nan
9091;BME280;4581;42.416;25.598;2023-04-28T09:02:09;66887.34;;;0.00;nan
9091;BME280;4581;42.416;25.598;2023-04-28T09:04:36;66876.66;;;0.00;nan
9091;BME280;4581;42.416;25.598;2023-04-28T09:07:10;66843.09;;;0.00;nan
9091;BME280;4581;42.416;25.598;2023-04-28T09:09:36;66815.63;;;0.00;nan
9091;BME280;4581;42.416;25.598;2023-04-28T09:12:04;66775.97;;;0.00;nan
9091;BME280;4581;42.416;25.598;2023-04-28T09:14:32;66728.66;;;0.00;nan
9091;BME280;4581;42.416;25.598;2023-04-28T09:17:09;66772.91;;;0.00;nan
9091;BME280;4581;42.416;25.598;2023-04-28T09:19:38;66746.97;;;0.00;nan
9091;BME280;4581;42.416;25.598;2023-04-28T09:22:05;66746.97;;;0.00;nan
9091;BME280;4581;42.416;25.598;2023-04-28T09:24:49;66728.66;;;0.00;nan
9091;BME280;4581;42.416;25.598;2023-04-28T09:27:25;66736.28;;;0.00;nan
9091;BME280;4581;42.416;25.598;2023-04-28T09:29:53;66771.38;;;0.00;nan
9091;BME280;4581;42.416;25.598;2023-04-28T09:32:21;66748.50;;;0.00;nan
9091;BME280;4581;42.416;25.598;2023-04-28T09:34:54;66704.25;;;0.00;nan
9091;BME280;4581;42.416;25.598;2023-04-28T09:37:27;66667.63;;;0.00;nan
9091;BME280;4581;42.416;25.598;2023-04-28T09:40:22;66617.28;;;0.00;nan
9091;BME280;4581;42.416;25.598;2023-04-28T09:42:49;66624.91;;;0.00;nan
9091;BME280;4581;42.416;25.598;2023-04-28T09:45:16;66598.97;;;0.00;nan
9091;BME280;4581;42.416;25.598;2023-04-28T09:47:45;66602.00;;;0.00;nan
9091;BME280;4581;42.416;25.598;2023-04-28T09:50:14;66620.31;;;0.00;nan
9091;BME280;4581;42.416;25.598;2023-04-28T09:52:44;66672.19;;;0.00;nan
9091;BME280;4581;42.416;25.598;2023-04-28T09:55:14;66637.09;;;0.00;nan
9091;BME280;4581;42.416;25.598;2023-04-28T09:57:43;66745.44;;;0.00;nan
9091;BME280;4581;42.416;25.598;2023-04-28T10:00:11;66714.94;;;0.00;nan
9091;BME280;4581;42.416;25.598;2023-04-28T10:02:38;66673.72;;;0.00;nan
9091;BME280;4581;42.416;25.598;2023-04-28T10:05:09;66687.47;;;0.00;nan
9091;BME280;4581;42.416;25.598;2023-04-28T10:07:37;66696.63;;;0.00;nan
9091;BME280;4581;42.416;25.598;2023-04-28T10:10:06;66701.19;;;0.00;nan
9091;BME280;4581;42.416;25.598;2023-04-28T10:12:33;66730.19;;;0.00;nan
9091;BME280;4581;42.416;25.598;2023-04-28T10:15:00;66742.41;;;0.00;nan
9091;BME280;4581;42.416;25.598;2023-04-28T10:17:27;66748.50;;;0.00;nan
9091;BME280;4581;42.416;25.598;2023-04-28T10:19:55;66768.34;;;0.00;nan
9091;BME280;4581;42.416;25.598;2023-04-28T10:27:41;66673.72;;;0.00;nan
9091;BME280;4581;42.416;25.598;2023-04-28T10:30:16;66672.19;;;0.00;nan
9091;BME280;4581;42.416;25.598;2023-04-28T10:32:46;66684.41;;;0.00;nan
9091;BME280;4581;42.416;25.598;2023-04-28T10:38:05;66679.84;;;0.00;nan
9091;BME280;4581;42.416;25.598;2023-04-28T10:40:40;66684.41;;;0.00;nan
9091;BME280;4581;42.416;25.598;2023-04-28T10:43:32;66704.25;;;0.00;nan
9091;BME280;4581;42.416;25.598;2023-04-28T10:46:04;66689.00;;;0.00;nan
9091;BME280;4581;42.416;25.598;2023-04-28T10:56:13;66666.09;;;0.00;nan
9091;BME280;4581;42.416;25.598;2023-04-28T10:58:48;66743.91;;;0.00;nan
9091;BME280;4581;42.416;25.598;2023-04-28T11:04:05;66571.50;;;0.00;nan
9091;BME280;4581;42.416;25.598;2023-04-28T11:06:45;66504.34;;;0.00;nan
9091;BME280;4581;42.416;25.598;2023-04-28T11:16:57;66617.28;;;0.00;nan
9091;BME280;4581;42.416;25.598;2023-04-28T11:19:44;66614.22;;;0.00;nan
9091;BME280;4581;42.416;25.598;2023-04-28T11:24:59;66646.25;;;0.00;nan
9091;BME280;4581;42.416;25.598;2023-04-28T11:27:30;66635.59;;;0.00;nan
9091;BME280;4581;42.416;25.598;2023-04-28T11:29:58;66647.78;;;0.00;nan
9091;BME280;4581;42.416;25.598;2023-04-28T11:32:30;66669.16;;;0.00;nan
9091;BME280;4581;42.416;25.598;2023-04-28T11:34:57;66641.69;;;0.00;nan
9091;BME280;4581;42.416;25.598;2023-04-28T11:37:24;66614.22;;;0.00;nan
9091;BME280;4581;42.416;25.598;2023-04-28T11:39:51;66574.53;;;0.00;nan
9091;BME280;4581;42.416;25.598;2023-04-28T11:42:17;66585.22;;;0.00;nan
9091;BME280;4581;42.416;25.598;2023-04-28T11:44:51;66611.16;;;0.00;nan
9091;BME280;4581;42.416;25.598;2023-04-28T11:47:32;66602.00;;;0.00;nan
9091;BME280;4581;42.416;25.598;2023-04-28T11:50:00;66585.22;;;0.00;nan
9091;BME280;4581;42.416;25.598;2023-04-28T11:52:27;66565.38;;;0.00;nan
9091;BME280;4581;42.416;25.598;2023-04-28T11:54:55;66553.19;;;0.00;nan
9091;BME280;4581;42.416;25.598;2023-04-28T11:57:23;66534.88;;;0.00;nan
9091;BME280;4581;42.416;25.598;2023-04-28T11:59:49;66505.88;;;0.00;nan
9091;BME280;4581;42.416;25.598;2023-04-28T12:02:26;66486.03;;;0.00;nan
9091;BME280;4581;42.416;25.598;2023-04-28T12:04:54;66450.94;;;0.00;nan
9091;BME280;4581;42.416;25.598;2023-04-28T12:07:21;66429.59;;;0.00;nan
9091;BME280;4581;42.416;25.598;2023-04-28T12:10:14;66476.88;;;0.00;nan
9091;BME280;4581;42.416;25.598;2023-04-28T12:12:42;66504.34;;;0.00;nan
9091;BME280;4581;42.416;25.598;2023-04-28T12:15:16;66540.97;;;0.00;nan
9091;BME280;4581;42.416;25.598;2023-04-28T12:17:45;66531.81;;;0.00;nan
9091;BME280;4581;42.416;25.598;2023-04-28T12:20:33;66537.91;;;0.00;nan
9091;BME280;4581;42.416;25.598;2023-04-28T12:23:00;66507.41;;;0.00;nan
9091;BME280;4581;42.416;25.598;2023-04-28T12:25:28;66522.66;;;0.00;nan
9091;BME280;4581;42.416;25.598;2023-04-28T12:28:04;66525.72;;;0.00;nan
9091;BME280;4581;42.416;25.598;2023-04-28T12:30:33;66499.78;;;0.00;nan
9091;BME280;4581;42.416;25.598;2023-04-28T12:33:00;66528.78;;;0.00;nan
9091;BME280;4581;42.416;25.598;2023-04-28T12:35:28;66525.72;;;0.00;nan
9091;BME280;4581;42.416;25.598;2023-04-28T12:37:55;66515.03;;;0.00;nan
9091;BME280;4581;42.416;25.598;2023-04-28T12:40:24;66489.09;;;0.00;nan
9091;BME280;4581;42.416;25.598;2023-04-28T12:42:51;66589.81;;;0.00;nan
9091;BME280;4581;42.416;25.598;2023-04-28T12:45:18;66556.22;;;0.00;nan
9091;BME280;4581;42.416;25.598;2023-04-28T12:47:45;66516.56;;;0.00;nan
9091;BME280;4581;42.416;25.598;2023-04-28T12:50:12;66498.25;;;0.00;nan
9091;BME280;4581;42.416;25.598;2023-04-28T12:52:39;66487.56;;;0.00;nan
9091;BME280;4581;42.416;25.598;2023-04-28T12:55:07;66486.03;;;0.00;nan
9091;BME280;4581;42.416;25.598;2023-04-28T12:57:34;66501.31;;;0.00;nan
9091;BME280;4581;42.416;25.598;2023-04-28T13:00:07;66516.56;;;0.00;nan
9091;BME280;4581;42.416;25.598;2023-04-28T13:02:34;66490.63;;;0.00;nan
9091;BME280;4581;42.416;25.598;2023-04-28T13:05:01;66490.63;;;0.00;nan
9091;BME280;4581;42.416;25.598;2023-04-28T13:07:28;66461.63;;;0.00;nan
9091;BME280;4581;42.416;25.598;2023-04-28T13:09:56;66475.38;;;0.00;nan
9091;BME280;4581;42.416;25.598;2023-04-28T13:12:23;66513.50;;;0.00;nan
9091;BME280;4581;42.416;25.598;2023-04-28T13:14:50;66530.28;;;0.00;nan
9091;BME280;4581;42.416;25.598;2023-04-28T13:17:16;66527.25;;;0.00;nan
9091;BME280;4581;42.416;25.598;2023-04-28T13:19:43;66516.56;;;0.00;nan
9091;BME280;4581;42.416;25.598;2023-04-28T13:22:10;66540.97;;;0.00;nan
9091;BME280;4581;42.416;25.598;2023-04-28T13:24:37;66525.72;;;0.00;nan
9091;BME280;4581;42.416;25.598;2023-04-28T13:27:04;66525.72;;;0.00;nan
9091;BME280;4581;42.416;25.598;2023-04-28T13:29:35;66534.88;;;0.00;nan
9091;BME280;4581;42.416;25.598;2023-04-28T13:32:02;66537.91;;;0.00;nan
9091;BME280;4581;42.416;25.598;2023-04-28T13:34:31;66522.66;;;0.00;nan
9091;BME280;4581;42.416;25.598;2023-04-28T13:36:58;66539.44;;;0.00;nan
9091;BME280;4581;42.416;25.598;2023-04-28T13:39:24;66534.88;;;0.00;nan
9091;BME280;4581;42.416;25.598;2023-04-28T13:41:51;66550.13;;;0.00;nan
9091;BME280;4581;42.416;25.598;2023-04-28T13:44:18;66547.06;;;0.00;nan
9091;BME280;4581;42.416;25.598;2023-04-28T13:46:45;66544.03;;;0.00;nan
9091;BME280;4581;42.416;25.598;2023-04-28T13:49:11;66548.59;;;0.00;nan
9091;BME280;4581;42.416;25.598;2023-04-28T13:51:38;66550.13;;;0.00;nan
9091;BME280;4581;42.416;25.598;2023-04-28T13:54:05;66533.34;;;0.00;nan
9091;BME280;4581;42.416;25.598;2023-04-28T13:56:35;66524.19;;;0.00;nan
9091;BME280;4581;42.416;25.598;2023-04-28T13:59:02;66537.91;;;0.00;nan
9091;BME280;4581;42.416;25.598;2023-04-28T14:01:29;66539.44;;;0.00;nan
9091;BME280;4581;42.416;25.598;2023-04-28T14:03:56;66548.59;;;0.00;nan
9091;BME280;4581;42.416;25.598;2023-04-28T14:06:23;66542.50;;;0.00;nan
9091;BME280;4581;42.416;25.598;2023-04-28T14:08:50;66544.03;;;0.00;nan
9091;BME280;4581;42.416;25.598;2023-04-28T14:11:16;66542.50;;;0.00;nan
9091;BME280;4581;42.416;25.598;2023-04-28T14:13:43;66544.03;;;0.00;nan
9091;BME280;4581;42.416;25.598;2023-04-28T14:16:10;66531.81;;;0.00;nan